createdAt,value
2018-10-02T00:03:58.688Z,100357.66
2018-10-02T00:09:02.140Z,100358.64
2018-10-02T00:14:10.937Z,100365.00
2018-10-02T00:19:14.393Z,100366.67
2018-10-02T00:24:17.821Z,100357.07
2018-10-02T00:29:21.241Z,100356.09
2018-10-02T00:34:24.735Z,100351.92
2018-10-02T00:39:28.191Z,100356.20
2018-10-02T00:44:31.634Z,100363.17
2018-10-02T00:49:35.057Z,100366.73
2018-10-02T00:54:38.541Z,100365.91
2018-10-02T00:59:41.993Z,100364.97
2018-10-02T01:04:45.466Z,100373.34
2018-10-02T01:09:48.920Z,100368.25
2018-10-02T01:14:52.364Z,100371.24
2018-10-02T01:19:55.828Z,100369.74
2018-10-02T01:24:59.278Z,100367.23
2018-10-02T01:30:03.057Z,100367.08
2018-10-02T01:35:06.476Z,100368.98
2018-10-02T01:40:09.931Z,100371.89
2018-10-02T01:45:13.400Z,100374.39
2018-10-02T01:50:16.900Z,100379.39
2018-10-02T01:55:20.394Z,100380.92
2018-10-02T02:00:23.850Z,100375.27
2018-10-02T02:05:27.284Z,100380.73
2018-10-02T02:10:30.734Z,100384.01
2018-10-02T02:15:34.168Z,100382.39
2018-10-02T02:20:37.668Z,100388.26
2018-10-02T02:25:41.096Z,100381.23
2018-10-02T02:30:44.534Z,100393.44
2018-10-02T02:35:47.988Z,100389.97
2018-10-02T02:40:51.437Z,100397.77
2018-10-02T02:45:54.860Z,100404.10
2018-10-02T02:51:03.648Z,100405.63
2018-10-02T02:56:07.208Z,100400.80
2018-10-02T03:01:10.710Z,100400.43
2018-10-02T03:06:14.166Z,100388.02
2018-10-02T03:11:17.628Z,100386.78
2018-10-02T03:16:21.212Z,100380.66
2018-10-02T03:21:24.700Z,100377.66
2018-10-02T03:26:28.125Z,100379.97
2018-10-02T03:31:31.611Z,100394.86
2018-10-02T03:36:35.056Z,100392.25
2018-10-02T03:41:38.592Z,100391.88
2018-10-02T03:46:42.089Z,100391.11
2018-10-02T03:51:45.570Z,100388.80
2018-10-02T03:56:49.040Z,100381.70
2018-10-02T04:01:52.544Z,100377.37
2018-10-02T04:06:56.005Z,100378.44
2018-10-02T04:11:59.460Z,100377.69
2018-10-02T04:17:03.056Z,100383.13
2018-10-02T04:22:06.504Z,100388.23
2018-10-02T04:27:09.973Z,100391.02
2018-10-02T04:32:13.441Z,100392.44
2018-10-02T04:37:16.877Z,100399.74
2018-10-02T04:42:20.325Z,100402.05
2018-10-02T04:47:23.777Z,100407.98
2018-10-02T04:52:27.213Z,100405.88
2018-10-02T04:57:30.641Z,100405.98
2018-10-02T05:02:34.080Z,100407.02
2018-10-02T05:07:37.528Z,100405.29
2018-10-02T05:12:40.973Z,100418.45
2018-10-02T05:17:44.449Z,100420.75
2018-10-02T05:22:47.905Z,100427.54
2018-10-02T05:27:51.461Z,100423.61
2018-10-02T05:32:54.886Z,100424.58
2018-10-02T05:37:58.317Z,100425.12
2018-10-02T05:43:01.794Z,100426.58
2018-10-02T05:48:05.273Z,100436.45
2018-10-02T05:53:08.759Z,100440.59
2018-10-02T05:58:12.230Z,100445.95
2018-10-02T06:03:15.669Z,100441.13
2018-10-02T06:08:19.130Z,100447.95
2018-10-02T06:13:22.579Z,100450.64
2018-10-02T06:18:26.039Z,100450.25
2018-10-02T06:23:29.471Z,100452.94
2018-10-02T06:28:32.929Z,100446.70
2018-10-02T06:33:36.373Z,100452.08
2018-10-02T06:38:39.969Z,100453.05
2018-10-02T06:43:43.399Z,100449.88
2018-10-02T06:48:46.818Z,100455.25
2018-10-02T06:53:50.276Z,100481.77
2018-10-02T06:58:53.938Z,100483.05
2018-10-02T07:03:57.348Z,100483.88
2018-10-02T07:09:00.844Z,100489.92
2018-10-02T07:14:04.260Z,100493.72
2018-10-02T07:19:08.089Z,100474.82
2018-10-02T07:24:11.540Z,100468.82
2018-10-02T07:29:14.972Z,100464.23
2018-10-02T07:34:18.414Z,100468.09
2018-10-02T07:39:21.879Z,100455.11
2018-10-02T07:44:25.404Z,100447.41
2018-10-02T07:49:28.859Z,100446.04
2018-10-02T07:54:32.584Z,100441.25
2018-10-02T07:59:36.113Z,100452.66
2018-10-02T08:04:39.542Z,100441.86
2018-10-02T08:09:43.022Z,100440.91
2018-10-02T08:14:46.556Z,100430.26
2018-10-02T08:19:50.016Z,100437.81
2018-10-02T08:24:53.511Z,100441.02
2018-10-02T08:29:57.136Z,100433.13
2018-10-02T08:35:00.463Z,100424.27
2018-10-02T08:40:03.918Z,100416.31
2018-10-02T08:45:07.581Z,100398.45
2018-10-02T08:50:10.997Z,100389.05
2018-10-02T08:55:14.467Z,100392.05
2018-10-02T09:00:17.983Z,100396.64
2018-10-02T09:05:21.496Z,100382.45
2018-10-02T09:10:24.936Z,100381.77
2018-10-02T09:15:28.388Z,100361.58
2018-10-02T09:20:31.990Z,100364.37
2018-10-02T09:25:35.417Z,100353.08
2018-10-02T09:30:44.076Z,100343.58
2018-10-02T09:35:52.682Z,100351.53
2018-10-02T09:41:01.394Z,100351.73
2018-10-02T09:46:04.926Z,100339.66
2018-10-02T09:51:08.423Z,100340.58
2018-10-02T09:56:11.828Z,100346.36
2018-10-02T10:01:20.593Z,100348.26
2018-10-02T10:06:24.017Z,100342.89
2018-10-02T10:11:27.430Z,100341.75
2018-10-02T10:16:31.029Z,100334.63
2018-10-02T10:21:34.436Z,100339.72
2018-10-02T10:26:37.952Z,100336.17
2018-10-02T10:31:41.351Z,100324.67
2018-10-02T10:36:44.789Z,100333.62
2018-10-02T10:41:48.239Z,100331.05
2018-10-02T10:46:51.685Z,100319.92
2018-10-02T10:51:55.193Z,100325.30
2018-10-02T10:56:58.614Z,100309.77
2018-10-02T11:02:02.043Z,100312.91
2018-10-02T11:07:05.444Z,100305.74
2018-10-02T11:12:08.936Z,100305.27
2018-10-02T11:17:12.381Z,100297.97
2018-10-02T11:22:15.793Z,100294.80
2018-10-02T11:27:19.291Z,100288.09
2018-10-02T11:32:22.722Z,100283.69
2018-10-02T11:37:26.167Z,100283.78
2018-10-02T11:42:29.572Z,100281.65
2018-10-02T11:47:33.077Z,100266.34
2018-10-02T11:52:36.484Z,100258.28
2018-10-02T11:57:40.048Z,100260.00
2018-10-02T12:02:43.540Z,100262.69
2018-10-02T12:07:46.905Z,100239.87
2018-10-02T12:12:50.390Z,100234.88
2018-10-02T12:17:53.802Z,100223.07
2018-10-02T12:22:57.259Z,100208.27
2018-10-02T12:28:00.673Z,100194.84
2018-10-02T12:33:10.789Z,100201.07
2018-10-02T12:38:14.219Z,100188.51
2018-10-02T12:43:17.663Z,100180.45
2018-10-02T12:48:21.101Z,100170.58
2018-10-02T12:53:24.600Z,100168.75
2018-10-02T12:58:27.978Z,100166.23
2018-10-02T13:03:31.393Z,100156.37
2018-10-02T13:08:34.857Z,100153.19
2018-10-02T13:13:38.385Z,100131.05
2018-10-02T13:18:41.809Z,100117.72
2018-10-02T13:23:45.237Z,100109.39
2018-10-02T13:28:48.656Z,100107.38
2018-10-02T13:33:52.118Z,100105.83
2018-10-02T13:38:55.548Z,100089.45
2018-10-02T13:43:59.219Z,100076.41
2018-10-02T13:49:02.655Z,100066.53
2018-10-02T13:54:06.093Z,100067.87
2018-10-02T13:59:09.580Z,100064.59
2018-10-02T14:04:13.056Z,100067.28
2018-10-02T14:09:16.519Z,100051.66
2018-10-02T14:14:20.129Z,100056.95
2018-10-02T14:19:23.633Z,100043.23
2018-10-02T14:35:32.681Z,100021.00
2018-10-02T14:40:36.144Z,100017.73
2018-10-02T14:45:39.570Z,100009.67
2018-10-02T14:50:43.588Z,100002.19
2018-10-02T14:55:47.012Z,100001.33
2018-10-02T15:00:50.596Z,99992.08
2018-10-02T15:05:54.230Z,99984.09
2018-10-02T15:10:57.791Z,99980.56
2018-10-02T15:16:01.423Z,99977.16
2018-10-02T15:21:04.859Z,99975.27
2018-10-02T15:26:08.313Z,99968.78
2018-10-02T15:31:11.931Z,99958.72
2018-10-02T15:36:15.414Z,99959.06
2018-10-02T15:41:18.860Z,99942.90
2018-10-02T15:46:22.395Z,99943.81
2018-10-02T15:51:25.832Z,99945.57
2018-10-02T15:56:29.879Z,99939.30
2018-10-02T16:01:33.361Z,99930.88
2018-10-02T16:06:36.820Z,99931.16
2018-10-02T16:11:40.859Z,99932.54
2018-10-02T16:16:44.397Z,99936.02
2018-10-02T16:21:47.997Z,99936.05
2018-10-02T16:26:51.570Z,99949.17
2018-10-02T16:31:55.077Z,99936.37
2018-10-02T16:36:58.520Z,99940.16
2018-10-02T16:42:02.130Z,99943.75
2018-10-02T16:47:05.701Z,99948.67
2018-10-02T16:52:09.248Z,99954.70
2018-10-02T16:57:12.725Z,99956.05
2018-10-02T17:02:16.216Z,99945.44
2018-10-02T17:07:19.763Z,99957.01
2018-10-02T17:12:24.214Z,99962.30
2018-10-02T17:17:29.401Z,99961.11
2018-10-02T17:22:33.148Z,99949.36
2018-10-02T17:27:37.259Z,99958.66
2018-10-02T17:32:41.637Z,99959.95
2018-10-02T17:37:45.285Z,99957.59
2018-10-02T17:42:48.912Z,99955.47
2018-10-02T17:47:52.349Z,99962.13
2018-10-02T17:52:55.840Z,99968.77
2018-10-02T17:57:59.449Z,99965.59
2018-10-02T18:03:03.565Z,99963.74
2018-10-02T18:08:07.063Z,99968.47
2018-10-02T18:13:10.617Z,99967.73
2018-10-02T18:18:14.492Z,99969.92
2018-10-02T18:23:19.176Z,99973.47
2018-10-02T18:28:22.728Z,99973.11
2018-10-02T18:33:26.967Z,99975.53
2018-10-02T18:38:30.731Z,99988.30
2018-10-02T18:43:34.230Z,99983.03
2018-10-02T18:48:37.710Z,99985.73
2018-10-02T18:53:41.267Z,99979.97
2018-10-02T18:58:45.910Z,99961.57
2018-10-02T19:03:49.474Z,99985.11
2018-10-02T19:08:58.400Z,99971.27
2018-10-02T19:14:01.904Z,99983.40
2018-10-02T19:19:05.673Z,99973.70
2018-10-02T19:24:09.145Z,99973.33
2018-10-02T19:29:12.624Z,99971.13
2018-10-02T19:34:16.644Z,99973.82
2018-10-02T19:39:25.744Z,99971.13
2018-10-02T19:44:29.660Z,99972.97
2018-10-02T19:49:34.299Z,99967.70
2018-10-02T19:54:37.852Z,99962.31
2018-10-02T19:59:41.353Z,99966.72
2018-10-02T20:04:44.963Z,99964.52
2018-10-02T20:09:48.508Z,99972.23
2018-10-02T20:14:52.264Z,99971.25
2018-10-02T20:19:55.900Z,99968.06
2018-10-02T20:24:59.596Z,99980.19
2018-10-02T20:30:03.428Z,99969.54
2018-10-02T20:35:07.339Z,99978.48
2018-10-02T20:40:10.935Z,99976.64
2018-10-02T20:45:14.525Z,99993.32
2018-10-02T20:50:18.094Z,99986.71
2018-10-02T20:55:21.891Z,99992.98
2018-10-02T21:00:25.513Z,99998.46
2018-10-02T21:05:29.172Z,99995.03
2018-10-02T21:10:32.736Z,100000.42
2018-10-02T21:15:36.413Z,99988.30
2018-10-02T21:20:39.790Z,99993.20
2018-10-02T21:25:43.276Z,99987.31
2018-10-02T21:30:47.001Z,99978.37
2018-10-02T21:35:52.282Z,99984.13
2018-10-02T21:40:55.833Z,99981.80
2018-10-02T21:45:59.296Z,99974.20
2018-10-02T21:51:02.823Z,99975.06
2018-10-02T21:56:06.429Z,99971.78
2018-10-02T22:01:10.018Z,99961.86
2018-10-02T22:06:13.621Z,99964.55
2018-10-02T22:11:17.133Z,99959.43
2018-10-02T22:16:20.654Z,99950.09
2018-10-02T22:21:24.136Z,99956.24
2018-10-02T22:26:27.705Z,99958.94
2018-10-02T22:31:31.355Z,99951.84
2018-10-02T22:36:34.917Z,99951.25
2018-10-02T22:41:38.390Z,99955.78
2018-10-02T22:46:42.152Z,99953.55
2018-10-02T22:51:45.784Z,99945.47
2018-10-02T22:56:49.297Z,99944.02
2018-10-02T23:01:52.773Z,99952.47
2018-10-02T23:06:56.275Z,99956.16
2018-10-02T23:11:59.750Z,99950.76
2018-10-02T23:17:03.217Z,99959.34
2018-10-02T23:22:06.703Z,99955.78
2018-10-02T23:27:10.164Z,99961.17
2018-10-02T23:32:13.651Z,99973.30
2018-10-02T23:37:17.136Z,99968.86
2018-10-02T23:42:20.617Z,99981.39
2018-10-02T23:47:24.116Z,99990.33
2018-10-02T23:52:27.683Z,99985.89
2018-10-02T23:57:31.156Z,99986.78
